Weather History for KMNH - February, 2013

Change the Weather History Date:

Tuesday, February 19, 2013

  Actual Average (KAPA) Record (KAPA)
Temperature  
Mean Temperature 26 °F -  
Max Temperature 37 °F 44 °F 64 °F (2011)
Min Temperature 14 °F 21 °F -2 °F (2006)
Degree Days  
Heating Degree Days 40    
Moisture  
Dew Point 10 °F    
Average Humidity 54    
Maximum Humidity 86    
Minimum Humidity 30    
Precipitation  
Precipitation 0.00 in - - ()
Sea Level Pressure  
Sea Level Pressure 29.88 in    
Wind  
Wind Speed 12 mph (South)    
Max Wind Speed 18 mph    
Max Gust Speed 22 mph    
Visibility 10 miles    
Events      
Averages and records for this station are not official NWS values.
T = Trace of Precipitation, MM = Missing Value Source: NWS Daily Summary

Daily Weather History Graph

Daily Weather History Graph

Search for Another Location

Airport or City:

Trip Planner

Search our weather history database for the weather conditions in past years. The results will help you decide how hot, cold, wet, or windy it might be!

Date:

Astronomy

Feb. 19, 2013 Rise Set
Actual Time 6:44 AM MST 5:40 PM MST
Civil Twilight 6:17 AM MST 6:07 PM MST
Nautical Twilight 5:46 AM MST 6:38 PM MST
Astronomical Twilight 5:15 AM MST 7:09 PM MST
Moon 12:15 PM MST (2/19) 2:17 AM MST (2/19)
Length of Visible Light 11h 50m
Length of Day
10h 55m
Waxing Gibbous, 68% of the Moon is Illuminated
Feb 19
Waxing Gibbous
Feb 25
Full
Mar 4
Last Quarter
Mar 11
New
Mar 19
First Quarter

Hourly Weather History & Observations

Time (MST) Temp. Windchill Dew Point Humidity Pressure Visibility Wind Dir Wind Speed Gust Speed Precip Events Conditions
12:14 AM 14.0 °F -0.2 °F 3.2 °F 62% 30.00 in 10.0 mi South 12.7 mph - N/A   Clear
12:34 AM 14.0 °F 0.5 °F 3.2 °F 62% 30.00 in 10.0 mi South 11.5 mph - N/A   Clear
12:54 AM 14.0 °F 0.5 °F 3.2 °F 62% 29.99 in 10.0 mi South 11.5 mph - N/A   Clear
1:14 AM 17.6 °F 3.2 °F 6.8 °F 63% 29.99 in 10.0 mi South 15.0 mph - N/A   Clear
1:34 AM 19.4 °F 5.5 °F 6.8 °F 58% 29.98 in 10.0 mi South 15.0 mph - N/A   Clear
1:54 AM 19.4 °F 5.5 °F 5.0 °F 54% 29.98 in 10.0 mi South 15.0 mph - N/A   Clear
2:13 AM 17.6 °F 2.7 °F 5.0 °F 58% 29.97 in 10.0 mi South 16.1 mph - N/A   Clear
2:34 AM 17.6 °F 1.7 °F 3.2 °F 53% 29.97 in 10.0 mi South 18.4 mph - N/A   Clear
2:54 AM 17.6 °F 1.7 °F 8.6 °F 68% 29.96 in 10.0 mi South 18.4 mph - N/A   Clear
3:15 AM 17.6 °F 2.2 °F 10.4 °F 73% 29.95 in 10.0 mi South 17.3 mph - N/A   Clear
3:35 AM 17.6 °F 2.2 °F 10.4 °F 73% 29.95 in 10.0 mi South 17.3 mph - N/A   Clear
3:55 AM 17.6 °F 1.7 °F 10.4 °F 73% 29.95 in 10.0 mi South 18.4 mph - N/A   Clear
4:15 AM 17.6 °F 2.2 °F 10.4 °F 73% 29.95 in 10.0 mi South 17.3 mph - N/A   Clear
4:55 AM 17.6 °F 1.7 °F 12.2 °F 79% 29.94 in 10.0 mi SSW 18.4 mph - N/A   Clear
5:15 AM 15.8 °F 2.7 °F 12.2 °F 86% 29.95 in 10.0 mi SSW 11.5 mph - N/A   Clear
5:35 AM 15.8 °F 2.1 °F 12.2 °F 86% 29.95 in 10.0 mi SSW 12.7 mph - N/A   Clear
5:54 AM 17.6 °F 3.7 °F 12.2 °F 79% 29.95 in 10.0 mi South 13.8 mph - N/A   Clear
6:14 AM 17.6 °F 4.3 °F 12.2 °F 79% 29.95 in 10.0 mi South 12.7 mph - N/A   Clear
6:34 AM 17.6 °F 3.2 °F 12.2 °F 79% 29.94 in 10.0 mi South 15.0 mph - N/A   Clear
6:54 AM 17.6 °F 2.2 °F 12.2 °F 79% 29.94 in 10.0 mi South 17.3 mph - N/A   Clear
7:14 AM 17.6 °F 3.2 °F 12.2 °F 79% 29.94 in 10.0 mi South 15.0 mph - N/A   Clear
7:34 AM 19.4 °F 5.5 °F 12.2 °F 74% 29.94 in 10.0 mi South 15.0 mph - N/A   Clear
7:54 AM 21.2 °F 6.4 °F 12.2 °F 68% 29.95 in 10.0 mi South 18.4 mph - N/A   Clear
8:14 AM 23.0 °F 8.7 °F 12.2 °F 63% 29.94 in 10.0 mi South 18.4 mph 21.9 mph N/A   Clear
8:34 AM 23.0 °F 9.2 °F 14.0 °F 68% 29.94 in 10.0 mi South 17.3 mph - N/A   Clear
8:54 AM 26.6 °F 15.2 °F 14.0 °F 59% 29.94 in 10.0 mi South 13.8 mph - N/A   Clear
9:14 AM 30.2 °F 21.3 °F 12.2 °F 47% 29.94 in 10.0 mi South 10.4 mph - N/A   Clear
9:34 AM 30.2 °F 20.8 °F 12.2 °F 47% 29.93 in 10.0 mi SSE 11.5 mph - N/A   Clear
9:54 AM 32.0 °F 23.0 °F 12.2 °F 44% 29.92 in 10.0 mi SSE 11.5 mph - N/A   Clear
10:14 AM 33.8 °F 25.8 °F 10.4 °F 38% 29.92 in 10.0 mi SSE 10.4 mph - N/A   Clear
10:34 AM 35.6 °F 29.2 °F 8.6 °F 33% 29.92 in 10.0 mi South 8.1 mph - N/A   Clear
10:54 AM 35.6 °F 30.7 °F 6.8 °F 30% 29.92 in 10.0 mi South 5.8 mph - N/A   Clear
11:14 AM 35.6 °F 28.6 °F 8.6 °F 33% 29.91 in 10.0 mi SSE 9.2 mph - N/A   Clear
11:34 AM 35.6 °F 28.0 °F 8.6 °F 33% 29.90 in 10.0 mi South 10.4 mph - N/A   Clear
11:54 AM 37.4 °F 30.8 °F 8.6 °F 30% 29.90 in 10.0 mi SSE 9.2 mph - N/A   Clear
12:14 PM 35.6 °F 27.5 °F 6.8 °F 30% 29.88 in 10.0 mi SE 11.5 mph 16.1 mph N/A   Clear
12:34 PM 35.6 °F 27.5 °F 6.8 °F 30% 29.87 in 10.0 mi SSE 11.5 mph 18.4 mph N/A   Clear
12:54 PM 35.6 °F 26.6 °F 6.8 °F 30% 29.86 in 10.0 mi SSE 13.8 mph 18.4 mph N/A   Clear
1:14 PM 33.8 °F 23.9 °F 8.6 °F 35% 29.84 in 10.0 mi SSE 15.0 mph - N/A   Clear
1:34 PM 33.8 °F 24.8 °F 8.6 °F 35% 29.83 in 10.0 mi SSE 12.7 mph - N/A   Clear
1:54 PM 35.6 °F 27.1 °F 8.6 °F 33% 29.82 in 10.0 mi SSE 12.7 mph - N/A   Clear
2:14 PM 35.6 °F 27.5 °F 10.4 °F 35% 29.82 in 10.0 mi SSE 11.5 mph 17.3 mph N/A   Clear
2:34 PM 37.4 °F 28.5 °F 8.6 °F 30% 29.81 in 10.0 mi SSE 15.0 mph 19.6 mph N/A   Clear
2:54 PM 35.6 °F 27.5 °F 8.6 °F 33% 29.81 in 10.0 mi SSE 11.5 mph - N/A   Clear
3:14 PM 33.8 °F 24.3 °F 8.6 °F 35% 29.81 in 10.0 mi SSE 13.8 mph - N/A   Clear
3:34 PM 32.0 °F 23.0 °F 10.4 °F 41% 29.81 in 10.0 mi South 11.5 mph 17.3 mph N/A   Clear
3:54 PM 32.0 °F 23.0 °F 10.4 °F 41% 29.81 in 10.0 mi South 11.5 mph - N/A   Clear
4:14 PM 32.0 °F 23.6 °F 10.4 °F 41% 29.82 in 10.0 mi South 10.4 mph - N/A   Clear
5:34 PM 28.4 °F 20.4 °F 8.6 °F 43% 29.81 in 10.0 mi SSE 8.1 mph - N/A   Clear
5:54 PM 26.6 °F 17.5 °F 8.6 °F 47% 29.81 in 10.0 mi SSE 9.2 mph - N/A   Clear
6:34 PM 26.6 °F 21.2 °F 8.6 °F 47% 29.81 in 10.0 mi SSW 4.6 mph - N/A   Clear
6:54 PM 24.8 °F 16.9 °F 10.4 °F 54% 29.81 in 10.0 mi SW 6.9 mph - N/A   Clear
7:14 PM 26.6 °F 21.2 °F 10.4 °F 51% 29.81 in 10.0 mi SW 4.6 mph - N/A   Clear
7:34 PM 26.6 °F - 10.4 °F 51% 29.81 in 10.0 mi Calm Calm - N/A   Clear
8:14 PM 24.8 °F 20.5 °F 12.2 °F 59% 29.79 in 10.0 mi WSW 3.5 mph - N/A   Scattered Clouds
8:34 PM 26.6 °F 21.2 °F 10.4 °F 51% 29.79 in 10.0 mi SW 4.6 mph - N/A   Scattered Clouds
8:54 PM 26.6 °F 21.2 °F 10.4 °F 51% 29.78 in 10.0 mi WSW 4.6 mph - N/A   Clear
9:14 PM 26.6 °F 21.2 °F 10.4 °F 51% 29.77 in 10.0 mi SW 4.6 mph - N/A   Clear
9:34 PM 26.6 °F 20.0 °F 12.2 °F 55% 29.76 in 10.0 mi South 5.8 mph - N/A   Clear
9:54 PM 28.4 °F 21.2 °F 12.2 °F 51% 29.76 in 10.0 mi SSW 6.9 mph - N/A   Scattered Clouds
10:14 PM 26.6 °F 22.6 °F 12.2 °F 55% 29.75 in 10.0 mi WSW 3.5 mph - N/A   Scattered Clouds
10:34 PM 24.8 °F 19.1 °F 12.2 °F 59% 29.75 in 10.0 mi West 4.6 mph - N/A   Mostly Cloudy
10:54 PM 26.6 °F 20.0 °F 12.2 °F 55% 29.74 in 10.0 mi West 5.8 mph - N/A   Scattered Clouds
11:14 PM 26.6 °F 22.6 °F 10.4 °F 51% 29.73 in 10.0 mi West 3.5 mph - N/A   Clear
11:34 PM 24.8 °F - 10.4 °F 54% 29.73 in 10.0 mi Calm Calm - N/A   Clear
11:54 PM 23.0 °F 18.4 °F 10.4 °F 59% 29.73 in 10.0 mi NNE 3.5 mph - N/A   Clear